createdAt,value
2022-10-19T00:00:37.737Z,45.60
2022-10-19T00:01:37.726Z,45.28
2022-10-19T00:02:37.698Z,45.60
2022-10-19T00:03:37.762Z,44.31
2022-10-19T00:04:37.690Z,44.31
2022-10-19T00:05:37.719Z,45.28
2022-10-19T00:06:37.695Z,44.63
2022-10-19T00:07:37.658Z,44.47
2022-10-19T00:08:37.729Z,44.15
2022-10-19T00:09:37.648Z,44.31
2022-10-19T00:10:37.634Z,44.47
2022-10-19T00:11:37.657Z,44.79
2022-10-19T00:12:37.637Z,44.79
2022-10-19T00:13:37.627Z,44.63
2022-10-19T00:14:37.639Z,44.63
2022-10-19T00:15:37.588Z,44.63
2022-10-19T00:16:38.419Z,44.47
2022-10-19T00:17:37.600Z,44.63
2022-10-19T00:18:37.587Z,44.47
2022-10-19T00:19:37.550Z,44.47
2022-10-19T00:20:37.613Z,44.96
2022-10-19T00:21:37.602Z,48.66
2022-10-19T00:22:37.549Z,52.05
2022-10-19T00:23:37.582Z,44.47
2022-10-19T00:24:37.535Z,45.28
2022-10-19T00:25:37.481Z,44.63
2022-10-19T00:26:37.507Z,44.79
2022-10-19T00:27:38.522Z,44.31
2022-10-19T00:28:37.653Z,44.63
2022-10-19T00:29:37.505Z,44.63
2022-10-19T00:30:37.549Z,44.31
2022-10-19T00:31:37.524Z,44.63
2022-10-19T00:32:37.462Z,44.63
2022-10-19T00:33:37.476Z,44.31
2022-10-19T00:34:37.442Z,44.47
2022-10-19T00:35:37.449Z,44.63
2022-10-19T00:36:37.466Z,44.79
2022-10-19T00:37:37.408Z,44.79
2022-10-19T00:38:37.453Z,44.31
2022-10-19T00:39:37.487Z,44.31
2022-10-19T00:40:37.464Z,44.31
2022-10-19T00:41:37.420Z,44.31
2022-10-19T00:42:37.418Z,44.31
2022-10-19T00:43:37.382Z,44.63
2022-10-19T00:44:37.389Z,44.63
2022-10-19T00:45:37.389Z,44.47
2022-10-19T00:46:37.374Z,44.47
2022-10-19T00:47:37.351Z,44.47
2022-10-19T00:48:37.391Z,44.79
2022-10-19T00:49:37.399Z,44.79
2022-10-19T00:50:37.330Z,44.79
2022-10-19T00:51:37.378Z,44.79
2022-10-19T00:52:37.312Z,44.79
2022-10-19T00:53:37.329Z,44.47
2022-10-19T00:54:37.304Z,44.63
2022-10-19T00:55:37.264Z,44.47
2022-10-19T00:56:37.281Z,44.63
2022-10-19T00:57:37.280Z,44.79
2022-10-19T00:58:38.241Z,45.76
2022-10-19T00:59:37.278Z,45.92
2022-10-19T01:00:37.428Z,45.92
2022-10-19T01:01:37.280Z,44.79
2022-10-19T01:02:37.462Z,44.79
2022-10-19T01:03:37.288Z,44.63
2022-10-19T01:04:37.234Z,44.96
2022-10-19T01:05:37.206Z,44.63
2022-10-19T01:06:37.346Z,44.63
2022-10-19T01:07:37.556Z,44.63
2022-10-19T01:08:37.211Z,44.63
2022-10-19T01:09:37.175Z,44.47
2022-10-19T01:10:37.188Z,44.63
2022-10-19T01:11:37.175Z,45.28
2022-10-19T01:12:37.192Z,44.63
2022-10-19T01:13:37.164Z,44.63
2022-10-19T01:14:37.215Z,45.12
2022-10-19T01:15:37.182Z,44.47
2022-10-19T01:16:37.100Z,44.47
2022-10-19T01:17:37.130Z,44.63
2022-10-19T01:18:37.119Z,44.79
2022-10-19T01:19:37.091Z,44.96
2022-10-19T01:20:37.134Z,44.63
2022-10-19T01:21:37.137Z,44.31
2022-10-19T01:22:37.077Z,44.79
2022-10-19T01:23:37.088Z,44.31
2022-10-19T01:24:39.851Z,44.31
2022-10-19T01:25:38.071Z,44.47
2022-10-19T01:26:37.035Z,44.31
2022-10-19T01:27:37.258Z,44.63
2022-10-19T01:28:37.111Z,44.47
2022-10-19T01:29:37.023Z,44.63
2022-10-19T01:30:37.022Z,45.28
2022-10-19T01:31:37.029Z,44.79
2022-10-19T01:32:37.027Z,45.60
2022-10-19T01:33:37.080Z,44.63
2022-10-19T01:34:36.991Z,44.63
2022-10-19T01:35:37.004Z,44.63
2022-10-19T01:36:37.027Z,44.63
2022-10-19T01:37:37.075Z,44.79
2022-10-19T01:38:36.984Z,45.12
2022-10-19T01:39:37.951Z,44.63
2022-10-19T01:40:36.950Z,44.47
2022-10-19T01:41:36.944Z,44.47
2022-10-19T01:42:36.962Z,44.31
2022-10-19T01:43:36.956Z,44.47
2022-10-19T02:02:55.684Z,44.31
2022-10-19T02:03:55.571Z,44.63
2022-10-19T02:04:55.800Z,44.79
2022-10-19T02:05:55.537Z,45.28
2022-10-19T02:06:57.041Z,44.79
2022-10-19T02:07:58.058Z,44.79
2022-10-19T02:08:56.877Z,44.63
2022-10-19T02:09:57.554Z,44.31
2022-10-19T02:10:56.751Z,44.47
2022-10-19T02:11:57.672Z,44.63
2022-10-19T02:12:56.777Z,44.47
2022-10-19T02:13:56.787Z,44.31
2022-10-19T02:15:30.155Z,44.79
2022-10-19T02:15:56.581Z,44.96
2022-10-19T02:16:56.586Z,45.12
2022-10-19T02:17:56.568Z,45.28
2022-10-19T02:18:56.595Z,44.79
2022-10-19T02:19:56.592Z,44.63
2022-10-19T02:20:56.554Z,44.96
2022-10-19T02:21:56.557Z,44.96
2022-10-19T02:22:56.600Z,45.12
2022-10-19T02:23:56.543Z,44.79
2022-10-19T02:24:56.603Z,46.89
2022-10-19T02:25:56.519Z,45.44
2022-10-19T02:26:56.526Z,45.44
2022-10-19T02:27:57.558Z,45.12
2022-10-19T02:28:56.514Z,45.28
2022-10-19T02:29:56.515Z,46.41
2022-10-19T02:30:56.478Z,45.76
2022-10-19T02:31:56.489Z,45.76
2022-10-19T02:32:56.461Z,45.12
2022-10-19T02:33:56.433Z,44.79
2022-10-19T02:34:56.478Z,45.12
2022-10-19T02:35:56.437Z,44.79
2022-10-19T02:36:56.425Z,44.47
2022-10-19T02:37:56.441Z,44.47
2022-10-19T02:38:56.454Z,44.96
2022-10-19T02:39:56.419Z,45.12
2022-10-19T02:40:56.421Z,46.08
2022-10-19T02:41:56.411Z,45.76
2022-10-19T02:42:56.417Z,46.08
2022-10-19T02:43:56.375Z,45.28
2022-10-19T02:44:56.366Z,45.60
2022-10-19T02:45:56.425Z,48.98
2022-10-19T02:46:56.370Z,46.89
2022-10-19T02:47:56.367Z,46.73
2022-10-19T02:48:56.315Z,48.98
2022-10-19T02:49:56.337Z,45.92
2022-10-19T02:50:56.342Z,44.96
2022-10-19T02:51:56.312Z,44.47
2022-10-19T02:52:56.337Z,45.12
2022-10-19T02:53:57.332Z,44.63
2022-10-19T02:54:56.297Z,46.08
2022-10-19T02:55:56.297Z,44.96
2022-10-19T02:56:56.272Z,44.96
2022-10-19T02:57:56.304Z,44.96
2022-10-19T02:58:56.260Z,45.76
2022-10-19T02:59:56.256Z,45.76
2022-10-19T03:00:56.278Z,45.60
2022-10-19T03:01:56.238Z,46.73
2022-10-19T03:02:56.227Z,51.88
2022-10-19T03:03:56.248Z,45.28
2022-10-19T03:04:56.239Z,45.76
2022-10-19T03:05:56.203Z,48.18
2022-10-19T03:06:56.302Z,47.53
2022-10-19T03:07:56.178Z,47.70
2022-10-19T03:08:56.215Z,45.76
2022-10-19T03:09:56.178Z,46.41
2022-10-19T03:10:56.171Z,47.21
2022-10-19T03:11:56.146Z,47.86
2022-10-19T03:12:56.159Z,45.76
2022-10-19T03:13:56.154Z,45.60
2022-10-19T03:14:56.110Z,46.25
2022-10-19T03:15:56.158Z,45.76
2022-10-19T03:16:56.120Z,45.92
2022-10-19T03:17:56.115Z,48.34
2022-10-19T03:18:56.096Z,45.44
2022-10-19T03:19:56.112Z,47.05
2022-10-19T03:20:58.861Z,45.44
2022-10-19T03:21:57.065Z,45.76
2022-10-19T03:22:56.104Z,45.76
2022-10-19T03:23:56.060Z,46.25
2022-10-19T03:24:56.084Z,50.43
2022-10-19T03:25:56.061Z,49.47
2022-10-19T03:26:56.035Z,46.25
2022-10-19T03:27:56.069Z,49.15
2022-10-19T03:28:56.042Z,46.41
2022-10-19T03:29:56.104Z,46.89
2022-10-19T03:30:56.019Z,51.56
2022-10-19T03:31:56.015Z,47.21
2022-10-19T03:32:55.998Z,52.05
2022-10-19T03:33:55.992Z,47.21
2022-10-19T03:34:55.968Z,45.76
2022-10-19T03:35:56.022Z,49.31
2022-10-19T03:36:55.955Z,50.43
2022-10-19T03:37:55.966Z,48.34
2022-10-19T03:38:55.978Z,49.31
2022-10-19T03:39:55.966Z,48.18
2022-10-19T03:40:55.932Z,45.92
2022-10-19T03:41:55.942Z,45.12
2022-10-19T03:42:55.924Z,47.86
2022-10-19T03:43:55.999Z,50.27
2022-10-19T03:44:55.892Z,44.96
2022-10-19T03:45:55.878Z,45.92
2022-10-19T03:46:55.897Z,56.56
2022-10-19T04:03:20.565Z,47.05
2022-10-19T04:04:20.570Z,48.66
2022-10-19T04:05:20.551Z,46.08
2022-10-19T04:06:22.197Z,48.50
2022-10-19T04:07:21.658Z,54.62
2022-10-19T04:08:21.640Z,52.05
2022-10-19T04:09:21.648Z,50.43
2022-10-19T04:10:21.637Z,46.41
2022-10-19T04:11:21.635Z,52.37
2022-10-19T04:12:21.633Z,54.30
2022-10-19T04:13:21.638Z,54.79
2022-10-19T04:14:32.010Z,58.33
2022-10-19T04:15:24.169Z,57.04
2022-10-19T04:16:21.589Z,49.63
2022-10-19T04:17:21.576Z,49.47
2022-10-19T04:18:21.575Z,49.47
2022-10-19T04:19:21.593Z,54.62
2022-10-19T04:20:22.558Z,47.05
2022-10-19T04:21:21.566Z,49.15
2022-10-19T04:22:21.575Z,52.85
2022-10-19T04:23:21.572Z,53.33
2022-10-19T04:24:21.585Z,50.92
2022-10-19T04:25:21.572Z,51.72
2022-10-19T04:26:21.514Z,51.72
2022-10-19T04:27:21.563Z,50.43
2022-10-19T04:28:21.521Z,55.59
2022-10-19T04:29:23.721Z,52.69
2022-10-19T04:30:21.548Z,56.88
2022-10-19T04:31:21.485Z,58.97
2022-10-19T04:32:21.542Z,54.95
2022-10-19T04:33:21.474Z,64.29
2022-10-19T04:34:21.492Z,61.39
2022-10-19T04:35:21.511Z,58.97
2022-10-19T04:36:21.509Z,57.20
2022-10-19T04:37:22.601Z,55.11
2022-10-19T04:38:21.497Z,61.39
2022-10-19T04:39:21.423Z,48.66
2022-10-19T04:40:21.428Z,55.75
2022-10-19T04:41:21.444Z,53.66
2022-10-19T04:42:21.452Z,56.56
2022-10-19T04:43:21.449Z,54.62
2022-10-19T04:44:21.456Z,61.07
2022-10-19T04:45:21.387Z,60.75
2022-10-19T04:46:21.398Z,52.85
2022-10-19T04:47:22.305Z,58.01
2022-10-19T04:48:21.383Z,53.33
2022-10-19T04:49:21.354Z,53.98
2022-10-19T04:50:21.349Z,53.33
2022-10-19T04:51:21.344Z,57.20
2022-10-19T04:52:21.380Z,59.30
2022-10-19T04:53:21.461Z,50.92
2022-10-19T04:54:21.526Z,51.88
2022-10-19T04:55:22.314Z,63.97
2022-10-19T04:56:21.308Z,53.17
2022-10-19T04:57:21.301Z,53.33
2022-10-19T04:58:21.274Z,56.56
2022-10-19T04:59:21.320Z,62.52
2022-10-19T05:00:21.270Z,61.71
2022-10-19T05:01:21.361Z,52.37
2022-10-19T05:02:21.257Z,58.33
2022-10-19T05:03:21.257Z,53.33
2022-10-19T05:04:21.376Z,65.10
2022-10-19T05:05:21.217Z,54.14
2022-10-19T05:06:21.203Z,55.59
2022-10-19T05:07:21.198Z,55.11
2022-10-19T05:08:21.230Z,55.43
2022-10-19T05:09:21.221Z,56.56
2022-10-19T05:10:21.222Z,57.69
2022-10-19T05:11:21.176Z,62.04
2022-10-19T05:12:21.182Z,62.20
2022-10-19T05:13:21.170Z,64.61
2022-10-19T05:14:21.174Z,53.66
2022-10-19T05:15:21.139Z,57.52
2022-10-19T05:16:21.164Z,57.52
2022-10-19T05:17:21.166Z,62.68
2022-10-19T05:18:21.139Z,55.27
2022-10-19T05:19:21.112Z,68.16
2022-10-19T05:20:21.103Z,60.59
2022-10-19T05:21:22.144Z,54.30
2022-10-19T05:22:21.178Z,54.95
2022-10-19T05:23:21.158Z,55.43
2022-10-19T05:24:21.149Z,65.74
2022-10-19T05:25:21.100Z,60.10
2022-10-19T05:26:21.067Z,63.33
2022-10-19T05:27:21.103Z,63.97
2022-10-19T05:28:21.121Z,52.53
2022-10-19T05:29:21.089Z,65.74
2022-10-19T05:30:21.112Z,66.55
2022-10-19T05:31:21.065Z,65.74
2022-10-19T05:32:21.058Z,58.17
2022-10-19T05:33:21.066Z,61.07
2022-10-19T05:34:21.020Z,66.55
2022-10-19T05:35:22.516Z,68.16
2022-10-19T05:36:20.993Z,51.56
2022-10-19T05:37:21.023Z,68.00
2022-10-19T05:38:21.784Z,62.20
2022-10-19T05:39:21.001Z,60.59
2022-10-19T05:40:20.980Z,57.04
2022-10-19T05:41:20.945Z,69.29
2022-10-19T05:42:21.198Z,52.85
2022-10-19T05:43:21.934Z,54.14
2022-10-19T05:44:20.946Z,66.39
2022-10-19T05:45:20.936Z,65.26
2022-10-19T05:46:20.915Z,68.48
2022-10-19T05:47:20.935Z,64.45
2022-10-19T05:48:20.906Z,57.85
2022-10-19T05:49:20.891Z,54.46
2022-10-19T05:50:20.902Z,48.82
2022-10-19T05:51:20.873Z,56.07
2022-10-19T05:52:20.871Z,61.71
2022-10-19T05:53:20.912Z,63.49
2022-10-19T05:54:22.713Z,61.07
2022-10-19T05:55:20.833Z,65.26
2022-10-19T05:56:20.820Z,61.23
2022-10-19T05:57:20.828Z,58.17
2022-10-19T05:58:20.809Z,52.37
2022-10-19T05:59:20.843Z,67.51
2022-10-19T06:00:20.811Z,51.24
2022-10-19T06:01:20.787Z,50.60
2022-10-19T06:02:20.791Z,50.76
2022-10-19T06:03:20.789Z,54.62
2022-10-19T06:04:20.778Z,49.95
2022-10-19T06:05:20.768Z,57.69
2022-10-19T06:06:20.756Z,53.82
2022-10-19T06:07:20.775Z,52.85
2022-10-19T06:08:20.767Z,56.40
2022-10-19T06:09:20.711Z,59.30
2022-10-19T06:10:20.719Z,49.63
2022-10-19T06:11:20.718Z,50.27
2022-10-19T06:12:24.308Z,56.88
2022-10-19T06:13:21.721Z,59.14
2022-10-19T06:14:20.690Z,47.37
2022-10-19T06:15:20.703Z,50.60
2022-10-19T06:16:20.681Z,63.97
2022-10-19T06:17:20.662Z,57.04
2022-10-19T06:18:20.684Z,62.68
2022-10-19T06:19:20.678Z,61.87
2022-10-19T06:20:20.655Z,55.75
2022-10-19T06:21:20.710Z,53.17
2022-10-19T06:22:20.615Z,54.95
2022-10-19T06:23:20.608Z,59.14
2022-10-19T06:24:20.631Z,64.29
2022-10-19T06:25:20.643Z,59.78
2022-10-19T06:26:20.586Z,57.36
2022-10-19T06:27:20.651Z,50.43
2022-10-19T06:28:20.602Z,60.42
2022-10-19T06:29:20.615Z,53.82
2022-10-19T06:30:20.594Z,50.76
2022-10-19T06:31:20.629Z,55.75
2022-10-19T06:32:20.584Z,55.59
2022-10-19T06:33:20.558Z,48.98
2022-10-19T06:34:20.579Z,61.87
2022-10-19T06:35:20.527Z,48.18
2022-10-19T06:36:20.545Z,58.65
2022-10-19T06:37:20.509Z,60.91
2022-10-19T06:38:20.499Z,49.79
2022-10-19T06:39:20.491Z,53.17
2022-10-19T06:40:20.531Z,55.75
2022-10-19T06:41:20.498Z,57.04
2022-10-19T06:42:20.519Z,60.26
2022-10-19T06:43:21.314Z,48.34
2022-10-19T06:44:20.537Z,59.46
2022-10-19T06:45:20.461Z,54.79
2022-10-19T06:46:20.472Z,52.37
2022-10-19T06:47:20.486Z,59.46
2022-10-19T06:48:20.426Z,63.97
2022-10-19T06:49:20.434Z,60.10
2022-10-19T06:50:20.428Z,54.62
2022-10-19T06:51:20.415Z,54.46
2022-10-19T06:52:20.421Z,60.42
2022-10-19T06:53:20.394Z,57.52
2022-10-19T06:54:20.374Z,50.76
2022-10-19T06:55:20.380Z,52.69
2022-10-19T06:56:20.407Z,56.56
2022-10-19T06:57:20.367Z,52.69
2022-10-19T06:58:20.409Z,51.24
2022-10-19T06:59:20.352Z,61.23
2022-10-19T07:00:20.329Z,50.60
2022-10-19T07:01:20.393Z,49.79
2022-10-19T07:02:20.333Z,54.62
2022-10-19T07:03:20.348Z,50.92
2022-10-19T07:04:20.313Z,53.66
2022-10-19T07:05:20.321Z,49.79
2022-10-19T07:06:20.308Z,55.59
2022-10-19T07:07:20.288Z,61.39
2022-10-19T07:08:20.320Z,51.40
2022-10-19T07:09:20.299Z,54.14
2022-10-19T07:10:20.287Z,52.69
2022-10-19T07:11:20.296Z,52.05
2022-10-19T07:12:20.250Z,51.56
2022-10-19T07:13:20.262Z,60.26
2022-10-19T07:14:20.292Z,54.95
2022-10-19T07:15:20.234Z,57.36
2022-10-19T07:16:21.298Z,60.26
2022-10-19T07:17:20.232Z,57.85
2022-10-19T07:18:20.246Z,52.85
2022-10-19T07:19:20.227Z,53.50
2022-10-19T07:20:20.206Z,53.01
2022-10-19T07:21:20.193Z,53.82
2022-10-19T07:22:24.404Z,63.49
2022-10-19T07:23:22.190Z,53.17
2022-10-19T07:24:20.234Z,53.17
2022-10-19T07:25:20.193Z,50.92
2022-10-19T07:26:20.155Z,59.14
2022-10-19T07:27:20.160Z,52.21
2022-10-19T07:28:20.157Z,55.91
2022-10-19T07:29:20.174Z,55.43
2022-10-19T07:30:20.169Z,56.07
2022-10-19T07:31:20.207Z,65.42
2022-10-19T07:32:20.182Z,54.79
2022-10-19T07:33:20.124Z,49.95
2022-10-19T07:34:21.539Z,51.56
2022-10-19T07:35:20.133Z,60.26
2022-10-19T07:36:20.104Z,58.81
2022-10-19T07:37:20.127Z,51.56
2022-10-19T07:38:20.123Z,62.04
2022-10-19T07:39:20.047Z,55.11
2022-10-19T07:40:20.115Z,63.65
2022-10-19T07:41:20.049Z,48.34
2022-10-19T07:43:20.066Z,49.95
2022-10-19T07:44:20.095Z,50.60
2022-10-19T07:45:20.068Z,47.21
2022-10-19T07:46:20.035Z,53.50
2022-10-19T07:47:20.041Z,69.13
2022-10-19T07:48:20.032Z,54.14
2022-10-19T07:49:19.988Z,56.40
2022-10-19T07:50:20.029Z,54.62
2022-10-19T07:51:20.051Z,48.98
2022-10-19T07:52:19.999Z,47.21
2022-10-19T07:53:20.059Z,54.62
2022-10-19T07:54:20.000Z,52.21
2022-10-19T07:55:19.937Z,52.85
2022-10-19T07:56:19.942Z,51.72
2022-10-19T07:57:19.993Z,50.76
2022-10-19T07:58:19.911Z,61.39
2022-10-19T07:59:19.954Z,60.26
2022-10-19T08:00:19.927Z,62.84
2022-10-19T08:01:19.946Z,54.14
2022-10-19T08:02:20.028Z,57.04
2022-10-19T08:03:57.543Z,51.40
2022-10-19T08:05:22.016Z,64.45
2022-10-19T08:06:19.928Z,55.75
2022-10-19T08:07:19.889Z,55.27
2022-10-19T08:08:19.878Z,55.11
2022-10-19T08:09:47.215Z,48.98
2022-10-19T08:10:21.887Z,55.91
2022-10-19T08:11:19.871Z,51.88
2022-10-19T08:12:19.806Z,53.82
2022-10-19T08:13:19.840Z,51.56
2022-10-19T08:14:19.828Z,53.33
2022-10-19T08:17:40.096Z,50.43
2022-10-19T08:18:40.916Z,62.04
2022-10-19T08:19:40.185Z,48.34
2022-10-19T08:20:40.116Z,68.96
2022-10-19T08:21:40.117Z,48.82
2022-10-19T08:22:40.913Z,58.33
2022-10-19T08:23:40.124Z,49.31
2022-10-19T08:24:40.084Z,49.63
2022-10-19T08:25:40.109Z,50.43
2022-10-19T08:26:43.059Z,53.66
2022-10-19T08:27:40.114Z,49.47
2022-10-19T08:28:40.131Z,56.07
2022-10-19T08:29:41.055Z,58.01
2022-10-19T08:30:40.143Z,48.18
2022-10-19T08:31:40.120Z,62.68
2022-10-19T08:32:40.093Z,51.40
2022-10-19T08:33:40.033Z,59.94
2022-10-19T08:34:40.108Z,60.42
2022-10-19T08:35:40.017Z,54.30
2022-10-19T08:37:44.871Z,51.40
2022-10-19T08:38:42.024Z,61.23
2022-10-19T08:39:40.734Z,51.72
2022-10-19T08:40:40.421Z,51.08
2022-10-19T08:41:40.123Z,60.75
2022-10-19T08:42:40.013Z,59.30
2022-10-19T08:43:40.049Z,61.23
2022-10-19T08:44:40.064Z,50.27
2022-10-19T08:46:39.999Z,68.80
2022-10-19T08:47:40.006Z,62.04
2022-10-19T08:48:40.017Z,62.04
2022-10-19T08:49:39.920Z,61.07
2022-10-19T08:50:39.965Z,60.10
2022-10-19T08:51:40.037Z,59.46
2022-10-19T08:52:40.079Z,54.14
2022-10-19T08:53:39.917Z,59.30
2022-10-19T08:54:39.994Z,55.11
2022-10-19T08:55:39.848Z,53.66
2022-10-19T08:56:50.539Z,56.56
2022-10-19T08:57:41.917Z,60.75
2022-10-19T08:58:40.435Z,51.72
2022-10-19T08:59:39.866Z,50.60
2022-10-19T09:01:39.837Z,62.84
2022-10-19T09:02:39.839Z,60.75
2022-10-19T09:03:56.523Z,59.46
2022-10-19T09:04:42.427Z,54.30
2022-10-19T09:05:40.017Z,48.50
2022-10-19T09:06:39.897Z,56.88
2022-10-19T09:07:39.960Z,58.49
2022-10-19T09:08:39.903Z,54.46
2022-10-19T09:09:39.835Z,56.56
2022-10-19T09:10:39.767Z,52.69
2022-10-19T09:11:40.431Z,59.94
2022-10-19T09:12:39.797Z,55.43
2022-10-19T09:13:47.031Z,52.37
2022-10-19T09:14:41.687Z,51.56
2022-10-19T09:15:39.732Z,58.81
2022-10-19T09:16:39.725Z,61.71
2022-10-19T09:17:39.756Z,54.95
2022-10-19T09:18:39.843Z,48.34
2022-10-19T09:19:39.803Z,56.72
2022-10-19T09:20:40.427Z,52.37
2022-10-19T09:21:47.026Z,63.97
2022-10-19T09:22:41.676Z,53.17
2022-10-19T09:23:39.732Z,64.29
2022-10-19T09:24:39.753Z,56.72
2022-10-19T09:25:40.434Z,61.55
2022-10-19T09:26:39.657Z,51.24
2022-10-19T09:27:39.714Z,61.39
2022-10-19T09:28:40.265Z,57.85
2022-10-19T09:29:39.631Z,54.95
2022-10-19T09:30:39.602Z,58.17
2022-10-19T09:31:40.661Z,48.98
2022-10-19T09:32:40.643Z,64.45
2022-10-19T09:33:39.634Z,54.14
2022-10-19T09:34:39.639Z,58.49
2022-10-19T09:36:22.463Z,59.94
2022-10-19T09:36:51.146Z,56.07
2022-10-19T09:37:41.535Z,53.50
2022-10-19T09:41:37.268Z,55.59
2022-10-19T09:42:38.566Z,58.97
2022-10-19T09:43:38.534Z,51.56
2022-10-19T09:44:38.453Z,56.72
2022-10-19T09:45:38.562Z,54.79
2022-10-19T09:46:39.042Z,55.27
2022-10-19T09:48:13.353Z,50.76
2022-10-19T09:48:38.413Z,62.36
2022-10-19T09:49:38.388Z,60.75
2022-10-19T09:51:10.815Z,55.75
2022-10-19T09:52:13.620Z,54.30
2022-10-19T09:53:12.009Z,62.52
2022-10-19T09:54:11.774Z,51.24
2022-10-19T09:55:12.603Z,63.16
2022-10-19T09:56:13.054Z,55.43
2022-10-19T09:57:12.647Z,67.03
2022-10-19T09:58:12.681Z,61.87
2022-10-19T09:58:38.333Z,57.36
2022-10-19T09:59:38.356Z,59.46
2022-10-19T10:00:38.514Z,63.49
2022-10-19T10:01:43.247Z,66.06
2022-10-19T10:02:40.366Z,54.14
2022-10-19T10:03:39.132Z,63.49
2022-10-19T10:04:38.427Z,63.97
2022-10-19T10:05:38.361Z,60.75
2022-10-19T10:06:38.473Z,60.42
2022-10-19T10:07:38.329Z,62.04
2022-10-19T10:08:38.357Z,53.17
2022-10-19T10:09:38.316Z,49.63
2022-10-19T10:10:38.306Z,51.24
2022-10-19T10:11:39.112Z,47.53
2022-10-19T10:12:39.052Z,56.40
2022-10-19T10:13:38.345Z,63.49
2022-10-19T10:14:39.117Z,53.50
2022-10-19T10:15:38.351Z,60.26
2022-10-19T10:16:38.334Z,58.33
2022-10-19T10:17:38.374Z,51.88
2022-10-19T10:18:38.286Z,55.11
2022-10-19T10:19:38.274Z,56.24
2022-10-19T10:20:38.183Z,58.49
2022-10-19T10:21:38.170Z,53.66
2022-10-19T10:22:38.204Z,63.00
2022-10-19T10:23:38.280Z,57.69
2022-10-19T10:24:38.199Z,52.21
2022-10-19T10:25:38.863Z,50.27
2022-10-19T10:26:38.318Z,56.56
2022-10-19T10:27:39.156Z,55.75
2022-10-19T10:28:38.190Z,52.21
2022-10-19T10:29:38.251Z,57.04
2022-10-19T10:30:38.157Z,61.55
2022-10-19T10:31:38.134Z,59.46
2022-10-19T10:32:38.098Z,54.14
2022-10-19T10:33:44.977Z,50.43
2022-10-19T10:34:57.311Z,47.53
2022-10-19T10:35:40.177Z,58.49
2022-10-19T10:36:38.111Z,61.87
2022-10-19T10:37:38.123Z,62.04
2022-10-19T10:38:38.106Z,54.14
2022-10-19T10:39:38.204Z,50.76
2022-10-19T10:40:38.068Z,56.40
2022-10-19T10:41:38.079Z,63.81
2022-10-19T10:42:38.181Z,53.01
2022-10-19T10:43:38.099Z,59.46
2022-10-19T10:44:38.254Z,52.05
2022-10-19T10:45:38.141Z,53.98
2022-10-19T10:46:38.104Z,64.13
2022-10-19T10:47:38.115Z,56.88
2022-10-19T10:48:38.075Z,62.36
2022-10-19T10:49:38.076Z,57.85
2022-10-19T10:50:38.029Z,61.23
2022-10-19T10:51:37.985Z,63.33
2022-10-19T10:52:38.729Z,62.20
2022-10-19T10:53:37.982Z,63.16
2022-10-19T10:54:38.114Z,63.65
2022-10-19T10:55:38.629Z,57.20
2022-10-19T10:56:38.016Z,61.39
2022-10-19T10:57:37.927Z,60.75
2022-10-19T10:58:37.897Z,56.24
2022-10-19T10:59:41.671Z,62.04
2022-10-19T11:01:07.661Z,58.01
2022-10-19T11:01:37.870Z,64.29
2022-10-19T11:02:37.809Z,63.16
2022-10-19T11:03:37.854Z,60.10
2022-10-19T11:04:37.827Z,66.06
2022-10-19T11:05:37.876Z,66.06
2022-10-19T11:06:39.598Z,53.82
2022-10-19T11:07:38.171Z,55.75
2022-10-19T11:08:37.920Z,63.81
2022-10-19T11:09:37.828Z,50.60
2022-10-19T11:10:37.837Z,59.62
2022-10-19T11:11:37.837Z,52.37
2022-10-19T11:12:37.819Z,57.36
2022-10-19T11:13:38.825Z,61.87
2022-10-19T11:14:37.810Z,61.23
2022-10-19T11:15:37.807Z,54.46
2022-10-19T11:16:37.724Z,62.84
2022-10-19T11:17:37.867Z,49.15
2022-10-19T11:18:37.741Z,51.40
2022-10-19T11:19:37.786Z,61.23
2022-10-19T11:20:37.746Z,53.50
2022-10-19T11:21:37.687Z,55.43
2022-10-19T11:22:38.706Z,48.82
2022-10-19T11:23:37.707Z,60.42
2022-10-19T11:24:38.727Z,53.17
2022-10-19T11:25:37.695Z,59.62
2022-10-19T11:26:52.874Z,66.71
2022-10-19T11:27:37.906Z,58.17
2022-10-19T11:28:37.608Z,61.39
2022-10-19T11:29:37.644Z,61.07
2022-10-19T11:30:41.577Z,62.04
2022-10-19T11:31:39.623Z,59.78
2022-10-19T11:32:37.800Z,63.81
2022-10-19T11:33:37.682Z,59.14
2022-10-19T11:34:37.619Z,58.65
2022-10-19T11:35:37.616Z,63.97
2022-10-19T11:36:37.684Z,56.72
2022-10-19T11:37:45.670Z,60.91
2022-10-19T11:38:39.562Z,57.04
2022-10-19T11:39:37.606Z,64.78
2022-10-19T11:40:40.266Z,50.11
2022-10-19T11:41:38.538Z,63.49
2022-10-19T11:42:37.591Z,60.26
2022-10-19T11:43:37.605Z,58.17
2022-10-19T11:44:37.529Z,60.26
2022-10-19T11:45:37.555Z,60.75
2022-10-19T11:46:37.558Z,54.30
2022-10-19T11:47:37.614Z,48.98
2022-10-19T11:48:40.330Z,49.63
2022-10-19T11:49:39.519Z,58.81
2022-10-19T11:50:37.574Z,55.75
2022-10-19T11:51:37.517Z,49.63
2022-10-19T11:52:37.676Z,64.78
2022-10-19T11:53:37.497Z,51.56
2022-10-19T11:54:37.485Z,56.72
2022-10-19T11:55:38.386Z,60.59
2022-10-19T11:56:51.523Z,64.45
2022-10-19T11:57:39.473Z,58.33
2022-10-19T11:58:37.460Z,54.30
2022-10-19T11:59:37.438Z,53.66
2022-10-19T12:00:39.818Z,60.75
2022-10-19T12:01:38.472Z,53.17
2022-10-19T12:02:37.744Z,55.91
2022-10-19T12:03:37.389Z,53.17
2022-10-19T12:04:37.446Z,68.96
2022-10-19T12:05:37.384Z,55.27
2022-10-19T12:06:37.386Z,49.31
2022-10-19T12:07:37.360Z,57.52
2022-10-19T12:08:37.433Z,54.79
2022-10-19T12:09:37.418Z,61.55
2022-10-19T12:10:37.406Z,59.62
2022-10-19T12:11:37.351Z,64.78
2022-10-19T12:12:37.643Z,61.87
2022-10-19T12:13:37.399Z,60.26
2022-10-19T12:14:37.381Z,52.69
2022-10-19T12:15:38.306Z,52.05
2022-10-19T12:16:37.309Z,62.36
2022-10-19T12:17:37.575Z,64.13
2022-10-19T12:18:37.342Z,63.49
2022-10-19T12:19:37.263Z,65.10
2022-10-19T12:20:37.294Z,63.81
2022-10-19T12:21:37.247Z,63.81
2022-10-19T12:22:37.264Z,56.88
2022-10-19T12:23:38.268Z,56.24
2022-10-19T12:24:37.276Z,63.65
2022-10-19T12:25:37.206Z,63.16
2022-10-19T12:26:37.276Z,49.79
2022-10-19T12:27:37.454Z,55.11
2022-10-19T12:28:37.204Z,58.97
2022-10-19T12:29:37.255Z,61.23
2022-10-19T12:30:37.206Z,59.30
2022-10-19T12:31:37.301Z,58.97
2022-10-19T12:32:37.172Z,55.11
2022-10-19T12:33:37.225Z,57.20
2022-10-19T12:34:38.190Z,61.07
2022-10-19T12:35:37.231Z,49.79
2022-10-19T12:36:37.931Z,61.23
2022-10-19T12:37:37.364Z,65.26
2022-10-19T12:38:39.714Z,62.36
2022-10-19T12:39:39.288Z,65.26
2022-10-19T12:40:37.142Z,55.11
2022-10-19T12:41:37.908Z,62.68
2022-10-19T12:42:37.160Z,52.85
2022-10-19T12:43:37.151Z,63.49
2022-10-19T12:44:37.089Z,59.78
2022-10-19T12:45:37.174Z,58.49
2022-10-19T12:46:37.171Z,62.84
2022-10-19T12:47:37.435Z,60.26
2022-10-19T12:48:37.123Z,54.14
2022-10-19T12:49:37.069Z,48.66
2022-10-19T12:50:38.473Z,66.55
2022-10-19T12:51:37.077Z,52.21
2022-10-19T12:52:37.469Z,57.04
2022-10-19T12:53:37.070Z,50.60
2022-10-19T12:54:37.129Z,63.65
2022-10-19T12:55:37.037Z,60.10
2022-10-19T12:56:37.149Z,59.62
2022-10-19T12:57:37.241Z,55.11
2022-10-19T12:58:37.005Z,59.30
2022-10-19T12:59:37.016Z,61.39
2022-10-19T13:00:37.010Z,65.26
2022-10-19T13:01:37.071Z,60.42
2022-10-19T13:02:37.703Z,62.36
2022-10-19T13:03:37.027Z,62.52
2022-10-19T13:04:36.954Z,62.84
2022-10-19T13:05:36.966Z,54.95
2022-10-19T13:06:36.909Z,63.16
2022-10-19T13:07:37.349Z,65.74
2022-10-19T13:08:36.972Z,62.52
2022-10-19T13:09:36.937Z,59.46
2022-10-19T13:10:36.938Z,57.85
2022-10-19T13:11:36.919Z,63.97
2022-10-19T13:12:37.141Z,56.40
2022-10-19T13:13:36.882Z,56.40
2022-10-19T13:14:36.889Z,56.56
2022-10-19T13:15:37.704Z,60.75
2022-10-19T13:16:36.862Z,60.75
2022-10-19T13:17:36.898Z,54.46
2022-10-19T13:18:36.841Z,52.69
2022-10-19T13:19:36.891Z,56.07
2022-10-19T13:20:37.943Z,63.81
2022-10-19T13:21:36.827Z,60.10
2022-10-19T13:22:37.362Z,53.82
2022-10-19T13:23:36.802Z,58.97
2022-10-19T13:24:36.851Z,67.84
2022-10-19T13:25:36.878Z,50.43
2022-10-19T13:26:36.869Z,54.95
2022-10-19T13:27:37.109Z,52.21
2022-10-19T13:28:36.753Z,56.88
2022-10-19T13:29:36.840Z,50.92
2022-10-19T13:30:36.762Z,52.21
2022-10-19T13:31:37.710Z,59.46
2022-10-19T13:32:37.247Z,53.50
2022-10-19T13:33:36.898Z,49.95
2022-10-19T13:34:36.784Z,47.05
2022-10-19T13:35:36.850Z,52.85
2022-10-19T13:36:36.871Z,59.14